Time;durP1;ratioP1;P1;durP2;ratioP2;P2;SDS_P1;SDS_P2;PMS_P1;PMS_P2;Temp;Humidity;BMP_temperature;BMP_pressure;BME280_temperature;BME280_humidity;BME280_pressure;Samples;Min_cycle;Max_cycle;Signal;HPM_P1;HPM_P2
2022/01/14 00:04:06;;;;;;;35.63;17.98;;;;;;;-0.48;100.00;102984.63;9793677;30;20040;-93
2022/01/14 00:09:11;;;;;;;34.47;18.83;;;;;;;1.64;100.00;103108.84;9792812;30;20032;-90
2022/01/14 00:19:16;;;;;;;36.58;17.95;;;;;;;-0.30;100.00;103055.31;9808149;30;20051;-93
2022/01/14 00:34:42;;;;;;;40.35;19.85;;;;;;;0.68;100.00;103007.16;9798144;30;20139;-93
2022/01/14 00:39:43;;;;;;;37.42;17.40;;;;;;;-0.69;100.00;102841.22;9796201;30;20571;-94
2022/01/14 00:44:46;;;;;;;38.72;17.95;;;;;;;0.27;100.00;102982.75;9793158;30;20036;-93
2022/01/14 00:49:47;;;;;;;34.42;15.98;;;;;;;0.45;100.00;102955.84;9792368;30;20406;-94
2022/01/14 00:54:47;;;;;;;31.90;16.27;;;;;;;2.67;100.00;103324.06;9792403;30;20040;-93
2022/01/14 00:59:48;;;;;;;32.33;15.10;;;;;;;0.35;100.00;102879.09;9796506;30;20528;-93
2022/01/14 01:04:52;;;;;;;42.83;16.75;;;;;;;-2.69;100.00;102331.78;9800032;30;20131;-94
2022/01/14 01:09:56;;;;;;;29.70;15.77;;;;;;;-0.52;100.00;102834.34;9794753;30;20075;-93
2022/01/14 01:15:08;;;;;;;33.80;15.50;;;;;;;0.29;100.00;102868.78;9793667;30;20044;-93
2022/01/14 01:20:14;;;;;;;30.67;16.38;;;;;;;0.56;100.00;102935.94;9794534;30;20414;-95
2022/01/14 01:25:18;;;;;;;39.80;17.20;;;;;;;-0.33;100.00;102833.63;9791911;30;20125;-93
2022/01/14 01:35:34;;;;;;;34.40;16.63;;;;;;;-0.06;100.00;102787.03;9815777;30;20048;-93
2022/01/14 01:40:34;;;;;;;36.03;16.67;;;;;;;-1.16;100.00;102754.22;9783793;30;20056;-91
2022/01/14 01:45:35;;;;;;;37.72;17.20;;;;;;;0.46;100.00;102913.38;9797473;30;20085;-90
2022/01/14 01:50:36;;;;;;;34.55;17.75;;;;;;;-1.55;100.00;102710.72;9798396;30;20036;-90
2022/01/14 01:55:39;;;;;;;30.45;15.93;;;;;;;-1.55;100.00;102634.19;9776278;30;20079;-90
2022/01/14 02:00:40;;;;;;;39.22;16.45;;;;;;;-1.96;100.00;102447.78;9779929;30;20098;-93
2022/01/14 02:05:41;;;;;;;34.67;17.23;;;;;;;-0.78;100.00;102785.25;9776206;30;20035;-94
2022/01/14 02:10:42;;;;;;;33.55;17.17;;;;;;;-1.04;100.00;102747.75;9775027;30;20055;-93
2022/01/14 02:15:48;;;;;;;31.95;17.27;;;;;;;-1.21;100.00;102615.94;9775145;30;20033;-93
2022/01/14 02:26:08;;;;;;;34.10;17.95;;;;;;;-1.07;100.00;102585.84;9779864;30;20033;-93
2022/01/14 02:31:09;;;;;;;37.85;18.73;;;;;;;0.47;100.00;102826.50;9774434;30;20143;-93
2022/01/14 02:36:12;;;;;;;46.47;18.63;;;;;;;0.44;100.00;102794.28;9789110;30;20079;-93
2022/01/14 02:41:13;;;;;;;39.92;17.63;;;;;;;-2.00;100.00;102451.75;9793007;30;20143;-93
2022/01/14 02:46:16;;;;;;;46.22;19.05;;;;;;;4.45;100.00;103716.13;9775711;30;20135;-94
2022/01/14 02:51:21;;;;;;;35.38;17.95;;;;;;;-1.57;100.00;102679.38;9774217;30;20044;-93
2022/01/14 02:56:23;;;;;;;45.40;19.58;;;;;;;1.96;100.00;103152.06;9778855;30;20041;-93
2022/01/14 03:01:25;;;;;;;39.85;18.27;;;;;;;-0.44;100.00;102630.75;9773886;30;20067;-96
2022/01/14 03:06:26;;;;;;;40.22;18.83;;;;;;;0.58;100.00;102823.69;9759704;30;20432;-95
2022/01/14 03:11:32;;;;;;;44.28;16.98;;;;;;;2.21;100.00;103109.88;9787412;30;20041;-94
2022/01/14 03:16:39;;;;;;;35.42;17.08;;;;;;;-1.04;100.00;102741.50;9772649;30;20513;-95
2022/01/14 03:21:42;;;;;;;32.85;17.85;;;;;;;-0.51;100.00;102781.13;9788738;30;20070;-96
2022/01/14 03:26:46;;;;;;;48.65;19.50;;;;;;;4.48;100.00;103475.75;9773478;30;20059;-93
2022/01/14 03:31:47;;;;;;;40.38;18.60;;;;;;;1.32;100.00;103033.88;9772656;30;20544;-93
2022/01/14 03:36:48;;;;;;;40.30;17.58;;;;;;;-2.93;100.00;102323.09;9777623;30;20103;-90
2022/01/14 03:41:48;;;;;;;36.95;17.50;;;;;;;0.27;100.00;102887.03;9792287;30;20052;-90
2022/01/14 03:46:54;;;;;;;35.60;18.33;;;;;;;-0.21;100.00;102831.69;9807121;30;20109;-90
2022/01/14 03:51:57;;;;;;;50.33;20.80;;;;;;;2.66;100.00;103176.34;9794274;30;20040;-90
2022/01/14 03:56:58;;;;;;;39.03;19.40;;;;;;;-1.49;100.00;102450.88;9804496;30;20043;-93
2022/01/14 04:02:03;;;;;;;43.03;18.85;;;;;;;2.21;100.00;103126.19;9806860;30;20040;-93
2022/01/14 04:07:06;;;;;;;35.60;18.10;;;;;;;0.34;100.00;102742.75;9794895;30;20043;-92
2022/01/14 04:12:09;;;;;;;36.22;19.27;;;;;;;0.28;100.00;102745.19;9778581;30;20050;-90
2022/01/14 04:17:12;;;;;;;36.90;17.98;;;;;;;0.69;100.00;103041.44;9792783;30;20054;-91
2022/01/14 04:22:12;;;;;;;44.60;20.65;;;;;;;-1.08;100.00;102548.97;9793384;30;20040;-92
2022/01/14 04:27:27;;;;;;;37.75;19.60;;;;;;;0.04;100.00;102846.59;9794715;30;20109;-93
2022/01/14 04:32:30;;;;;;;44.35;21.63;;;;;;;-1.58;100.00;102566.94;9793392;30;20121;-93
2022/01/14 04:37:35;;;;;;;47.58;19.95;;;;;;;-1.30;100.00;102419.47;9792954;30;20060;-93
2022/01/14 04:42:37;;;;;;;46.67;20.13;;;;;;;0.81;100.00;102926.44;9793382;30;20071;-93
2022/01/14 04:47:53;;;;;;;41.65;21.17;;;;;;;0.20;100.00;102760.28;9792608;30;20159;-95
2022/01/14 04:53:02;;;;;;;52.83;22.60;;;;;;;0.90;100.00;102811.69;9796994;30;20047;-95
2022/01/14 04:58:02;;;;;;;62.65;23.75;;;;;;;-0.92;100.00;102618.78;9792204;30;20047;-93
2022/01/14 05:03:03;;;;;;;49.65;20.50;;;;;;;0.25;100.00;102675.03;9790843;30;20040;-95
2022/01/14 05:08:11;;;;;;;53.35;22.92;;;;;;;1.97;100.00;103012.50;9791185;30;20036;-93
2022/01/14 05:13:12;;;;;;;52.80;23.45;;;;;;;-2.05;100.00;102313.63;9792450;30;20402;-93
2022/01/14 05:18:13;;;;;;;50.17;21.77;;;;;;;-1.40;100.00;102610.44;9791290;30;20039;-94
2022/01/14 05:23:13;;;;;;;48.40;22.30;;;;;;;-2.17;100.00;102268.84;9790588;30;20509;-92
2022/01/14 05:28:18;;;;;;;56.85;23.88;;;;;;;-1.26;100.00;102651.47;9791274;30;20067;-93
2022/01/14 05:33:19;;;;;;;60.78;25.83;;;;;;;2.10;100.00;102998.59;9805305;30;20055;-95
2022/01/14 05:38:19;;;;;;;48.92;24.52;;;;;;;-3.00;100.00;102169.13;9805028;30;20063;-95
2022/01/14 05:43:20;;;;;;;57.42;24.30;;;;;;;0.40;100.00;102708.84;9806069;30;20070;-95
2022/01/14 05:53:39;;;;;;;51.40;22.50;;;;;;;0.51;100.00;102687.00;9823100;30;20044;-92
2022/01/14 05:58:40;;;;;;;50.85;23.02;;;;;;;-0.28;100.00;102690.63;9803880;30;20044;-92
2022/01/14 06:03:49;;;;;;;45.22;22.50;;;;;;;1.35;100.00;103039.06;9805128;30;20044;-93
2022/01/14 06:08:53;;;;;;;46.55;23.35;;;;;;;0.35;100.00;102849.28;9805178;30;20047;-92
2022/01/14 06:13:53;;;;;;;51.95;25.00;;;;;;;-1.20;100.00;102441.97;9792144;30;20068;-92
2022/01/14 06:18:54;;;;;;;48.08;22.90;;;;;;;2.49;100.00;103077.34;9796433;30;20040;-92
2022/01/14 06:23:57;;;;;;;46.33;24.02;;;;;;;-0.65;100.00;102547.84;9796309;30;20494;-92
2022/01/14 06:29:00;;;;;;;49.72;22.85;;;;;;;-1.90;100.00;102474.25;9796307;30;20167;-93
2022/01/14 06:34:00;;;;;;;48.05;23.90;;;;;;;-0.61;100.00;102754.00;9797001;30;20494;-92
2022/01/14 06:39:01;;;;;;;44.65;22.50;;;;;;;-2.25;100.00;102367.53;9796132;30;20044;-92
2022/01/14 06:44:04;;;;;;;51.83;23.70;;;;;;;0.10;100.00;102651.06;9810739;30;20036;-92
2022/01/14 06:49:05;;;;;;;46.95;22.48;;;;;;;1.42;100.00;102866.47;9795617;30;20085;-92
2022/01/14 06:54:06;;;;;;;40.75;21.50;;;;;;;3.89;100.00;103291.63;9780827;30;20040;-93
2022/01/14 06:59:06;;;;;;;46.03;22.55;;;;;;;0.35;100.00;102782.44;9782415;30;20113;-92
2022/01/14 07:04:07;;;;;;;40.22;22.77;;;;;;;1.71;100.00;102985.06;9813659;30;20041;-95
2022/01/14 07:09:07;;;;;;;49.17;25.10;;;;;;;-0.69;100.00;102670.81;9809982;30;20080;-94
2022/01/14 07:14:08;;;;;;;46.50;22.85;;;;;;;0.38;100.00;102708.13;9810421;30;20036;-94
2022/01/14 07:19:09;;;;;;;57.10;26.10;;;;;;;0.23;100.00;102826.88;9811370;30;20064;-92
2022/01/14 07:24:10;;;;;;;45.92;22.17;;;;;;;-1.86;100.00;102508.09;9811155;30;20060;-94
2022/01/14 07:29:12;;;;;;;44.83;21.77;;;;;;;-0.30;100.00;102803.56;9794735;30;20035;-92
2022/01/14 07:34:13;;;;;;;41.25;21.35;;;;;;;-0.39;100.00;102693.44;9808471;30;20040;-93
2022/01/14 07:39:14;;;;;;;40.17;21.17;;;;;;;2.66;100.00;103088.47;9793672;30;20056;-92
2022/01/14 07:44:17;;;;;;;45.72;21.13;;;;;;;1.67;100.00;102972.75;9808590;30;20055;-92
2022/01/14 07:49:18;;;;;;;43.50;21.33;;;;;;;-1.12;100.00;102484.53;9794006;30;20037;-92
2022/01/14 07:54:18;;;;;;;36.75;19.15;;;;;;;1.66;100.00;103014.50;9792548;30;20490;-92
2022/01/14 07:59:22;;;;;;;50.42;22.65;;;;;;;0.56;100.00;102884.44;9807600;30;20047;-93
2022/01/14 08:04:22;;;;;;;34.90;19.42;;;;;;;2.65;100.00;103087.63;9815725;30;20024;-94
2022/01/14 08:09:26;;;;;;;36.80;19.30;;;;;;;-1.67;100.00;102528.94;9808201;30;20505;-93
2022/01/14 08:14:26;;;;;;;44.03;18.40;;;;;;;0.72;100.00;102856.78;9806470;30;20143;-92
2022/01/14 08:19:32;;;;;;;41.00;18.60;;;;;;;2.77;100.00;103150.84;9811214;30;20079;-93
2022/01/14 08:24:39;;;;;;;35.22;19.05;;;;;;;0.68;100.00;102844.50;9807753;30;20040;-95
2022/01/14 08:29:39;;;;;;;37.72;17.85;;;;;;;2.49;100.00;103226.88;9806837;30;20589;-96
2022/01/14 08:34:49;;;;;;;37.20;18.95;;;;;;;-0.02;100.00;102722.63;9822074;30;20040;-94
2022/01/14 08:39:52;;;;;;;34.55;18.58;;;;;;;0.58;100.00;102654.78;9806465;30;20118;-95
2022/01/14 08:44:52;;;;;;;33.58;18.40;;;;;;;0.81;100.00;102864.09;9811944;30;20121;-95
2022/01/14 08:49:55;;;;;;;39.00;16.65;;;;;;;-0.91;100.00;102506.94;9821831;30;20069;-93
2022/01/14 08:54:58;;;;;;;32.38;16.90;;;;;;;1.46;100.00;103029.06;9805557;30;20032;-94
2022/01/14 09:00:37;;;;;;;36.65;17.08;;;;;;;4.98;100.00;103384.38;9830333;30;20048;-95
2022/01/14 09:05:38;;;;;;;45.88;17.27;;;;;;;2.45;100.00;103037.84;9806567;30;20051;-92
2022/01/14 09:10:39;;;;;;;31.60;15.10;;;;;;;2.41;100.00;103010.09;9804773;30;20044;-93
2022/01/14 09:15:39;;;;;;;29.90;15.13;;;;;;;1.56;100.00;102948.50;9820047;30;20111;-86
2022/01/14 09:20:40;;;;;;;30.60;13.85;;;;;;;4.05;100.00;103253.66;9804666;30;20537;-90
2022/01/14 09:25:46;;;;;;;28.17;12.38;;;;;;;1.23;100.00;102861.09;9791927;30;20032;-90
2022/01/14 09:30:49;;;;;;;28.33;13.13;;;;;;;1.05;100.00;102708.19;9790675;30;20487;-93
2022/01/14 09:35:50;;;;;;;19.55;10.60;;;;;;;1.54;100.00;102939.63;9791483;30;20062;-93
2022/01/14 09:40:53;;;;;;;26.42;10.57;;;;;;;2.65;100.00;102975.22;9815488;30;20382;-93
2022/01/14 09:45:54;;;;;;;20.85;9.48;;;;;;;1.67;100.00;102831.56;9806972;30;20036;-92
2022/01/14 09:50:55;;;;;;;26.00;8.02;;;;;;;3.00;100.00;102939.97;9811089;30;20625;-90
2022/01/14 09:55:56;;;;;;;20.00;8.00;;;;;;;2.27;100.00;103002.41;9812131;30;20101;-91
2022/01/14 10:01:16;;;;;;;18.92;7.30;;;;;;;1.02;100.00;102651.53;9811676;30;20032;-91
2022/01/14 10:06:43;;;;;;;16.92;7.30;;;;;;;5.90;100.00;103396.75;9797479;30;20040;-93
2022/01/14 10:12:33;;;;;;;21.58;6.55;;;;;;;5.99;100.00;103404.00;9811371;30;20036;-94
2022/01/14 10:18:09;;;;;;;12.77;5.47;;;;;;;0.78;100.00;102731.50;9809868;30;20178;-93
2022/01/14 10:23:12;;;;;;;14.93;5.88;;;;;;;-0.02;100.00;102473.50;9811050;30;20059;-91
2022/01/14 10:28:22;;;;;;;18.88;5.03;;;;;;;1.42;100.00;102781.50;9825131;30;20047;-91
2022/01/14 10:33:28;;;;;;;17.55;4.40;;;;;;;2.15;100.00;102848.69;9796907;30;20589;-90
2022/01/14 10:38:40;;;;;;;11.30;4.93;;;;;;;-0.79;100.00;102348.13;9810233;30;20071;-90
2022/01/14 10:43:40;;;;;;;11.10;4.18;;;;;;;2.97;100.00;103100.78;9796553;30;20044;-92
2022/01/14 10:48:43;;;;;;;21.90;4.78;;;;;;;3.46;100.00;103094.28;9795986;30;20036;-88
2022/01/14 10:53:51;;;;;;;30.67;4.05;;;;;;;4.22;100.00;103151.94;9811324;30;20420;-91
2022/01/14 10:58:55;;;;;;;18.67;4.03;;;;;;;6.18;100.00;103613.56;9802176;30;20052;-90
2022/01/14 11:03:57;;;;;;;18.70;4.35;;;;;;;3.57;100.00;103061.38;9792475;30;20047;-90
2022/01/14 11:09:03;;;;;;;12.30;3.67;;;;;;;0.97;100.00;102612.16;9809527;30;20032;-92
2022/01/14 11:14:04;;;;;;;13.63;3.83;;;;;;;2.28;100.00;102910.88;9810236;30;20445;-89
2022/01/14 11:19:07;;;;;;;10.68;3.63;;;;;;;6.34;100.00;103503.38;9824560;30;20051;-92
2022/01/14 11:24:23;;;;;;;26.23;4.80;;;;;;;0.15;100.00;102627.13;9814154;30;20071;-93
2022/01/14 11:29:25;;;;;;;13.57;2.90;;;;;;;1.69;100.00;102742.69;9810417;30;20405;-90
2022/01/14 11:34:42;;;;;;;20.27;3.58;;;;;;;3.86;100.00;103072.03;9797655;30;20074;-93
2022/01/14 11:39:59;;;;;;;10.32;3.70;;;;;;;1.50;100.00;102683.06;9809992;30;20048;-92
2022/01/14 11:45:02;;;;;;;9.45;3.60;;;;;;;0.99;100.00;102658.97;9813708;30;20062;-92
2022/01/14 11:50:03;;;;;;;13.82;3.05;;;;;;;0.44;100.00;102479.94;9810121;30;20075;-90
2022/01/14 11:55:05;;;;;;;15.43;4.07;;;;;;;-0.25;100.00;102387.22;9811554;30;20052;-88
2022/01/14 12:00:37;;;;;;;19.05;3.53;;;;;;;0.55;100.00;102634.22;9809030;30;20044;-94
2022/01/14 12:05:38;;;;;;;16.17;3.70;;;;;;;-0.63;100.00;102426.81;9823124;30;20040;-94
2022/01/14 12:10:44;;;;;;;15.40;3.80;;;;;;;0.08;100.00;102536.59;9793237;30;20478;-94
2022/01/14 12:15:48;;;;;;;16.70;3.72;;;;;;;0.50;100.00;102490.19;9796544;29;20031;-90
2022/01/14 12:20:58;;;;;;;13.25;4.50;;;;;;;1.44;100.00;102813.94;9812335;30;20379;-93
2022/01/14 12:26:19;;;;;;;20.63;5.88;;;;;;;0.82;100.00;102726.66;9809195;30;20052;-95
2022/01/14 12:31:20;;;;;;;17.70;4.30;;;;;;;3.89;100.00;103185.34;9814464;30;20055;-91
2022/01/14 12:36:22;;;;;;;19.58;5.03;;;;;;;0.01;100.00;102530.06;9794500;30;20402;-93
2022/01/14 12:41:23;;;;;;;25.50;4.97;;;;;;;2.38;100.00;102862.75;9791700;30;20051;-91
2022/01/14 12:46:36;;;;;;;17.95;3.90;;;;;;;2.09;100.00;102782.25;9791840;30;20036;-90
2022/01/14 12:51:37;;;;;;;20.08;5.88;;;;;;;4.50;100.00;103274.59;9793480;30;20056;-92
2022/01/14 12:56:41;;;;;;;19.10;5.15;;;;;;;1.36;100.00;102647.25;9776913;30;20048;-91
2022/01/14 13:01:49;;;;;;;18.85;5.43;;;;;;;4.84;100.00;103353.06;9794486;30;20075;-92
2022/01/14 13:06:58;;;;;;;17.08;5.43;;;;;;;6.19;100.00;103628.94;9791081;30;20474;-93
2022/01/14 13:12:13;;;;;;;25.50;6.25;;;;;;;1.49;100.00;102750.06;9776732;30;20486;-91
2022/01/14 13:17:20;;;;;;;22.90;6.97;;;;;;;3.86;100.00;103103.88;9776865;30;20036;-93
2022/01/14 13:22:23;;;;;;;30.33;7.07;;;;;;;0.50;100.00;102685.31;9791440;30;20483;-90
2022/01/14 13:27:28;;;;;;;22.10;7.95;;;;;;;-0.70;100.00;102412.19;9798969;30;20138;-96
2022/01/14 13:32:30;;;;;;;42.15;9.98;;;;;;;3.53;100.00;103032.72;9812868;30;20560;-95
2022/01/14 13:37:31;;;;;;;32.47;8.70;;;;;;;3.86;100.00;103251.88;9808308;30;20494;-92
2022/01/14 13:42:31;;;;;;;27.73;8.15;;;;;;;0.82;100.00;102651.56;9797496;30;20101;-91
2022/01/14 13:47:34;;;;;;;25.02;8.70;;;;;;;3.35;100.00;103062.66;9796146;30;20055;-91
2022/01/14 13:52:35;;;;;;;33.65;9.93;;;;;;;0.40;100.00;102608.59;9797546;30;20048;-93
2022/01/14 13:57:35;;;;;;;36.00;10.50;;;;;;;2.25;100.00;102829.63;9797694;30;20490;-92
2022/01/14 14:02:45;;;;;;;28.92;8.80;;;;;;;2.35;100.00;102825.00;9798437;30;20051;-90
2022/01/14 14:07:49;;;;;;;29.75;8.02;;;;;;;3.90;100.00;103039.88;9798328;30;20056;-90
2022/01/14 14:12:56;;;;;;;30.08;11.57;;;;;;;3.34;100.00;103089.03;9801706;30;20052;-90
2022/01/14 14:18:05;;;;;;;29.23;8.25;;;;;;;2.31;100.00;102921.44;9782926;30;20043;-91
2022/01/14 14:23:24;;;;;;;29.92;9.15;;;;;;;-0.01;100.00;102659.31;9807297;30;20036;-91
2022/01/14 14:28:28;;;;;;;30.50;8.95;;;;;;;4.01;100.00;103156.84;9794932;30;20054;-93
2022/01/14 14:33:29;;;;;;;36.28;10.00;;;;;;;5.40;100.00;103345.53;9772972;30;20105;-92
2022/01/14 14:38:30;;;;;;;28.58;9.20;;;;;;;3.97;100.00;103242.66;9768959;30;20056;-88
2022/01/14 14:43:33;;;;;;;24.45;8.68;;;;;;;1.84;100.00;102935.00;9809229;30;20041;-89
2022/01/14 14:48:33;;;;;;;36.33;8.18;;;;;;;2.58;100.00;102929.63;9809171;30;20047;-95
2022/01/14 14:53:34;;;;;;;31.10;10.40;;;;;;;2.13;100.00;102829.84;9803516;30;20586;-93
2022/01/14 14:58:46;;;;;;;36.83;11.98;;;;;;;1.28;100.00;102925.78;9815731;29;20498;-96
2022/01/14 15:03:46;;;;;;;27.80;10.35;;;;;;;3.50;100.00;102994.91;9792659;30;20051;-87
2022/01/14 15:08:47;;;;;;;36.42;10.57;;;;;;;3.44;100.00;102986.34;9786830;30;20517;-91
2022/01/14 15:13:47;;;;;;;38.20;12.10;;;;;;;1.98;100.00;102908.25;9768508;30;20135;-91
2022/01/14 15:18:48;;;;;;;32.95;11.65;;;;;;;3.65;100.00;103140.44;9805132;30;20047;-89
2022/01/14 15:23:50;;;;;;;35.15;12.02;;;;;;;3.56;100.00;103160.44;9783256;30;20040;-89
2022/01/14 15:28:51;;;;;;;39.42;11.48;;;;;;;1.20;100.00;102698.59;9818745;30;20036;-89
2022/01/14 15:33:52;;;;;;;33.90;11.95;;;;;;;3.66;100.00;103158.53;9790458;30;20954;-88
2022/01/14 15:38:52;;;;;;;29.38;11.80;;;;;;;1.42;100.00;102700.06;9798261;30;20060;-91
2022/01/14 15:43:56;;;;;;;29.00;10.38;;;;;;;2.45;100.00;102907.34;9787150;30;20561;-91
2022/01/14 15:48:56;;;;;;;48.65;12.20;;;;;;;1.88;100.00;102795.19;9786338;30;20062;-90
2022/01/14 15:53:57;;;;;;;30.25;10.88;;;;;;;0.47;100.00;102666.59;9784972;30;20040;-91
2022/01/14 15:58:57;;;;;;;27.23;9.57;;;;;;;5.17;100.00;103383.41;9799003;30;20075;-91
2022/01/14 16:03:58;;;;;;;33.55;11.45;;;;;;;1.88;100.00;102762.59;9847143;30;20070;-92
2022/01/14 16:08:59;;;;;;;33.55;11.98;;;;;;;2.55;100.00;102957.09;9823694;30;20028;-92
2022/01/14 16:14:10;;;;;;;35.60;10.73;;;;;;;2.88;100.00;103077.22;9764070;30;20518;-87
2022/01/14 16:19:10;;;;;;;21.52;9.55;;;;;;;2.89;100.00;103031.81;9793405;30;20378;-89
2022/01/14 16:24:11;;;;;;;36.25;9.85;;;;;;;2.03;100.00;102850.75;9791727;30;20119;-95
2022/01/14 16:29:14;;;;;;;32.90;10.75;;;;;;;3.95;100.00;103157.44;9792314;30;20586;-94
2022/01/14 16:34:14;;;;;;;25.38;9.18;;;;;;;-0.21;100.00;102398.56;9794885;30;20044;-95
2022/01/14 16:39:22;;;;;;;33.95;10.75;;;;;;;3.44;100.00;103133.41;9797971;30;20052;-92
2022/01/14 16:44:23;;;;;;;34.08;10.43;;;;;;;4.14;100.00;103190.03;9797465;30;20105;-92
2022/01/14 16:49:23;;;;;;;25.83;9.32;;;;;;;-1.21;100.00;102232.19;9807980;30;20098;-94
2022/01/14 16:54:35;;;;;;;27.67;9.80;;;;;;;1.92;100.00;102698.81;9813519;30;20028;-91
2022/01/14 17:00:11;;;;;;;;;;;;;;;;;;;;;
2022/01/14 17:34:47;;;;;;;33.65;11.02;;;;;;;5.82;100.00;103404.91;2391978;24;20597;-96
2022/01/14 19:42:58;;;;;;;;;;;;;;;;;;;;;
2022/01/14 19:55:10;;;;;;;26.98;7.63;;;;;;;0.35;100.00;102590.06;9656105;30;20044;-94
2022/01/14 20:06:31;;;;;;;23.67;8.00;;;;;;;0.09;100.00;102611.44;9872863;30;20525;-96
2022/01/14 20:11:40;;;;;;;;;;;;;;;5.44;100.00;103386.00;9846094;30;20043;-95
2022/01/14 20:16:53;;;;;;;22.17;7.13;;;;;;;-0.45;100.00;102520.81;9832240;30;19976;-96
2022/01/14 20:22:09;;;;;;;20.40;6.28;;;;;;;1.41;100.00;102831.38;9844931;30;20060;-96
2022/01/14 20:27:12;;;;;;;11.20;5.05;;;;;;;1.95;100.00;102951.16;9850938;30;20051;-95
2022/01/14 20:32:30;;;;;;;15.85;5.18;;;;;;;2.62;100.00;103113.25;9834901;30;20131;-93
2022/01/14 20:37:47;;;;;;;;;;;;;;;;;;;;;
2022/01/14 20:43:01;;;;;;;10.63;4.82;;;;;;;2.65;100.00;102926.28;9848993;30;20044;-95
2022/01/14 20:48:08;;;;;;;16.05;5.40;;;;;;;1.14;100.00;102845.69;9843260;30;20079;-95
2022/01/14 20:53:26;;;;;;;12.93;6.47;;;;;;;3.63;100.00;103159.66;9861431;29;20131;-95
2022/01/14 20:58:44;;;;;;;16.40;6.25;;;;;;;4.45;100.00;103214.19;9843832;30;20520;-96
2022/01/14 21:03:50;;;;;;;15.32;5.95;;;;;;;2.08;100.00;103054.09;9830684;30;20040;-95
2022/01/14 21:08:53;;;;;;;11.52;5.45;;;;;;;3.28;100.00;103279.34;9843364;30;20050;-94
2022/01/14 21:13:56;;;;;;;16.40;7.22;;;;;;;-0.17;100.00;102500.16;9845343;30;20122;-94
2022/01/14 21:18:59;;;;;;;17.88;8.32;;;;;;;2.39;100.00;102951.44;9841195;30;20417;-95
2022/01/14 21:24:22;;;;;;;15.32;5.40;;;;;;;2.84;100.00;102964.25;9847271;30;20040;-96
2022/01/14 21:29:43;;;;;;;;;;;;;;;;;;;;;
2022/01/14 21:34:46;;;;;;;13.43;5.25;;;;;;;-0.34;100.00;102663.25;9870989;30;20044;-93
2022/01/14 21:39:53;;;;;;;15.63;5.88;;;;;;;1.24;100.00;102822.13;9858727;30;20115;-96
2022/01/14 21:45:03;;;;;;;16.30;6.40;;;;;;;3.61;100.00;103253.44;9849139;30;20047;-95
2022/01/14 21:50:27;;;;;;;15.80;7.05;;;;;;;0.09;100.00;102756.84;9848438;30;20047;-91
2022/01/14 22:01:42;;;;;;;;;;;;;;;;;;;;;
2022/01/14 22:07:15;;;;;;;9.95;5.32;;;;;;;0.60;100.00;102640.06;9857394;30;20127;-95
2022/01/14 22:12:48;;;;;;;9.50;5.50;;;;;;;1.10;100.00;102836.13;9856368;30;20494;-94
2022/01/14 22:18:40;;;;;;;;;;;;;;;;;;;;;
2022/01/14 22:24:21;;;;;;;;;;;;;;;;;;;;;
2022/01/14 22:29:35;;;;;;;;;;;;;;;;;;;;;
2022/01/14 22:35:24;;;;;;;14.65;6.20;;;;;;;4.18;100.00;103205.06;9850938;30;20047;-92
2022/01/14 22:40:48;;;;;;;16.40;6.72;;;;;;;1.90;100.00;102896.41;9832807;30;20048;-91
2022/01/14 22:46:00;;;;;;;11.75;5.40;;;;;;;2.70;100.00;103062.69;9833123;30;20036;-90
2022/01/14 22:51:31;;;;;;;13.03;4.60;;;;;;;1.80;100.00;102875.56;9860088;30;20055;-91
2022/01/14 22:56:59;;;;;;;11.30;4.65;;;;;;;-0.75;100.00;102383.84;9850243;30;20654;-91
2022/01/14 23:02:20;;;;;;;;;;;;;;;;;;;;;
2022/01/14 23:14:27;;;;;;;;;;;;;;;;;;;;;
2022/01/14 23:20:07;;;;;;;;;;;;;;;;;;;;;
2022/01/14 23:25:38;;;;;;;;;;;;;;;;;;;;;
2022/01/14 23:31:44;;;;;;;;;;;;;;;;;;;;;
2022/01/14 23:37:18;;;;;;;;;;;;;;;;;;;;;
2022/01/14 23:42:56;;;;;;;11.43;4.18;;;;;;;2.83;100.00;103205.53;9857055;30;20039;-92
2022/01/14 23:49:06;;;;;;;;;;;;;;;;;;;;;
2022/01/14 23:54:45;;;;;;;;;;;;;;;;;;;;;
